Time;durP1;ratioP1;P1;durP2;ratioP2;P2;SDS_P1;SDS_P2;PMS_P1;PMS_P2;Temp;Humidity;BMP_temperature;BMP_pressure;BME280_temperature;BME280_humidity;BME280_pressure;Samples;Min_cycle;Max_cycle;Signal;HPM_P1;HPM_P2
2021/01/03 00:01:02;;;;;;;66.13;26.65;;;;;;;2.82;99.22;101507.47;5039036;28;20514;-63
2021/01/03 00:03:28;;;;;;;71.63;26.65;;;;;;;2.78;99.32;101518.25;5039122;28;20056;-64
2021/01/03 00:05:54;;;;;;;70.57;26.05;;;;;;;2.80;99.27;101511.06;5041878;28;20053;-64
2021/01/03 00:08:19;;;;;;;68.47;26.30;;;;;;;2.84;99.26;101501.13;5041020;28;20036;-64
2021/01/03 00:10:45;;;;;;;73.00;25.85;;;;;;;2.87;99.77;101498.38;5039274;28;20056;-64
2021/01/03 00:13:12;;;;;;;63.47;25.15;;;;;;;2.95;99.69;101503.31;5037733;28;20064;-63
2021/01/03 00:15:38;;;;;;;61.28;24.52;;;;;;;2.92;98.79;101500.81;5038826;28;20056;-64
2021/01/03 00:18:05;;;;;;;62.53;24.58;;;;;;;2.92;98.98;101500.81;5041088;28;21430;-64
2021/01/03 00:20:31;;;;;;;64.85;26.15;;;;;;;2.88;99.42;101507.19;5041839;28;20078;-64
2021/01/03 00:22:57;;;;;;;63.47;25.48;;;;;;;2.83;99.01;101503.88;5041017;28;20494;-64
2021/01/03 00:25:26;;;;;;;69.85;25.23;;;;;;;2.82;99.67;101502.16;5038185;28;20099;-64
2021/01/03 00:27:53;;;;;;;64.30;24.87;;;;;;;2.88;99.18;101499.22;5037990;28;23000;-64
2021/01/03 00:30:22;;;;;;;72.97;24.90;;;;;;;2.86;98.78;101503.75;5036583;28;20053;-64
2021/01/03 00:32:49;;;;;;;57.90;24.58;;;;;;;2.90;98.83;101500.00;5040370;28;20490;-65
2021/01/03 00:35:18;;;;;;;62.78;24.75;;;;;;;2.85;98.89;101502.03;5042159;28;20410;-64
2021/01/03 00:37:44;;;;;;;57.55;24.58;;;;;;;2.90;98.83;101494.69;5040851;28;20418;-65
2021/01/03 00:40:13;;;;;;;54.20;23.42;;;;;;;3.04;98.75;101497.56;5039232;28;20164;-64
2021/01/03 00:42:39;;;;;;;59.60;23.15;;;;;;;2.92;99.03;101501.66;5032608;28;20410;-64
2021/01/03 00:45:08;;;;;;;58.60;23.85;;;;;;;2.90;98.80;101505.31;5028452;28;20462;-65
2021/01/03 00:47:35;;;;;;;61.78;23.58;;;;;;;3.01;98.29;101507.50;5037587;28;20623;-64
2021/01/03 00:50:01;;;;;;;66.20;24.50;;;;;;;2.83;98.66;101503.88;5036780;28;20422;-64
2021/01/03 00:52:27;;;;;;;64.95;26.70;;;;;;;2.74;99.18;101499.81;5037803;28;20059;-63
2021/01/03 00:54:53;;;;;;;77.15;27.45;;;;;;;2.73;98.83;101508.75;5040332;28;20440;-65
2021/01/03 00:57:18;;;;;;;69.90;25.77;;;;;;;2.71;99.62;101506.19;5039118;28;20072;-64
2021/01/03 00:59:44;;;;;;;77.55;28.13;;;;;;;2.84;99.66;101505.59;5037539;28;20052;-64
2021/01/03 01:02:10;;;;;;;81.03;28.95;;;;;;;2.74;99.43;101503.38;5036087;28;20490;-64
2021/01/03 01:04:37;;;;;;;72.97;27.67;;;;;;;2.72;98.94;101513.19;5036670;28;20068;-64
2021/01/03 01:07:03;;;;;;;72.70;27.67;;;;;;;2.75;98.87;101513.09;5037424;28;20045;-64
2021/01/03 01:09:29;;;;;;;73.57;26.50;;;;;;;2.72;99.65;101515.00;5038805;28;20064;-64
2021/01/03 01:11:55;;;;;;;74.10;26.80;;;;;;;2.75;98.94;101506.88;5037433;28;20132;-64
2021/01/03 01:14:21;;;;;;;76.30;26.50;;;;;;;2.73;99.33;101508.75;5037044;28;20532;-65
2021/01/03 01:16:47;;;;;;;70.45;26.20;;;;;;;2.68;99.01;101514.28;5036731;28;20053;-63
2021/01/03 01:19:13;;;;;;;71.97;26.55;;;;;;;2.72;99.28;101504.38;5036697;28;20102;-64
2021/01/03 01:21:39;;;;;;;67.57;25.88;;;;;;;2.69;99.50;101508.00;5019215;28;20045;-63
2021/01/03 01:24:06;;;;;;;71.78;26.88;;;;;;;2.74;99.47;101500.72;5015451;28;20054;-64
2021/01/03 01:26:32;;;;;;;69.13;27.17;;;;;;;2.76;99.13;101516.59;5016334;28;20049;-64
2021/01/03 01:28:58;;;;;;;70.25;27.65;;;;;;;2.71;99.35;101516.81;5018308;28;20101;-63
2021/01/03 01:31:24;;;;;;;73.95;26.67;;;;;;;2.68;98.80;101521.38;5017538;28;20626;-62
2021/01/03 01:33:50;;;;;;;71.55;26.67;;;;;;;2.75;99.59;101514.84;5018723;28;20052;-63
2021/01/03 01:36:16;;;;;;;68.45;26.70;;;;;;;2.71;98.88;101516.81;5018945;28;20046;-65
2021/01/03 01:38:43;;;;;;;76.93;26.80;;;;;;;2.63;99.81;101514.50;5018338;28;20080;-65
2021/01/03 01:41:09;;;;;;;77.32;27.02;;;;;;;2.70;98.85;101525.69;5016994;28;20061;-63
2021/01/03 01:43:35;;;;;;;78.13;27.75;;;;;;;2.63;98.86;101521.59;5018517;28;20483;-63
2021/01/03 01:46:02;;;;;;;72.18;28.20;;;;;;;2.73;99.10;101514.94;5016129;28;20495;-63
2021/01/03 01:48:33;;;;;;;73.28;27.58;;;;;;;2.74;98.74;101519.31;5017074;28;20053;-64
2021/01/03 01:51:04;;;;;;;69.05;25.17;;;;;;;2.67;99.57;101519.69;5017420;28;20136;-63
2021/01/03 01:53:42;;;;;;;76.93;28.50;;;;;;;2.56;99.52;101512.16;5019378;28;20132;-63
2021/01/03 01:56:16;;;;;;;87.40;31.13;;;;;;;2.54;99.77;101506.06;5019740;28;20049;-63
2021/01/03 01:58:50;;;;;;;83.97;28.20;;;;;;;2.58;99.77;101515.63;5019379;28;20054;-63
2021/01/03 02:01:21;;;;;;;75.38;27.00;;;;;;;2.67;99.15;101514.34;5019757;28;20045;-63
2021/01/03 02:03:54;;;;;;;76.15;26.60;;;;;;;2.67;99.75;101520.53;5019646;28;20054;-65
2021/01/03 02:06:25;;;;;;;75.60;26.38;;;;;;;2.60;99.80;101519.91;5017174;28;20057;-64
2021/01/03 02:08:57;;;;;;;66.38;26.17;;;;;;;2.55;99.46;101516.63;5019250;28;20045;-63
2021/01/03 02:11:26;;;;;;;79.68;27.83;;;;;;;2.57;99.54;101520.06;5018402;28;20080;-64
2021/01/03 02:13:55;;;;;;;67.53;25.10;;;;;;;2.70;99.49;101519.53;5018950;28;20045;-63
2021/01/03 02:16:23;;;;;;;72.70;26.02;;;;;;;2.70;99.02;101532.81;5019196;28;20053;-64
2021/01/03 02:18:51;;;;;;;69.05;24.55;;;;;;;2.72;99.77;101512.34;5018684;28;20073;-63
2021/01/03 02:21:24;;;;;;;62.47;25.67;;;;;;;2.70;98.81;101523.03;5032469;28;20912;-63
2021/01/03 02:24:00;;;;;;;63.45;25.60;;;;;;;2.63;99.67;101513.63;5038797;28;20037;-63
2021/01/03 02:26:34;;;;;;;57.08;23.77;;;;;;;2.60;99.19;101524.38;5039125;28;20054;-63
2021/01/03 02:29:00;;;;;;;66.55;25.10;;;;;;;2.68;99.32;101510.75;5042568;28;20048;-65
2021/01/03 02:31:33;;;;;;;62.38;24.15;;;;;;;2.66;99.25;101508.16;5042387;28;20092;-63
2021/01/03 02:34:01;;;;;;;69.18;25.33;;;;;;;2.66;98.69;101516.13;5042332;28;20059;-64
2021/01/03 02:36:29;;;;;;;61.80;23.85;;;;;;;2.61;98.82;101524.31;5041946;28;20071;-63
2021/01/03 02:39:06;;;;;;;62.35;24.88;;;;;;;2.61;99.61;101520.81;5043009;28;20059;-63
2021/01/03 02:41:33;;;;;;;59.35;23.65;;;;;;;2.58;98.73;101527.13;5041966;28;20057;-63
2021/01/03 02:43:59;;;;;;;53.42;23.40;;;;;;;2.63;98.62;101518.94;5042604;28;20050;-64
2021/01/03 02:46:25;;;;;;;63.45;24.42;;;;;;;2.63;98.63;101518.94;5041371;28;20053;-65
2021/01/03 02:48:51;;;;;;;75.78;27.15;;;;;;;2.53;99.00;101521.16;5042359;28;20053;-63
2021/01/03 02:51:18;;;;;;;72.07;25.80;;;;;;;2.45;98.81;101516.16;5041447;28;20044;-64
2021/01/03 02:53:44;;;;;;;75.28;26.88;;;;;;;2.54;99.55;101519.34;5041272;28;20114;-64
2021/01/03 02:56:10;;;;;;;70.55;26.77;;;;;;;2.54;99.08;101514.03;5040615;28;20069;-63
2021/01/03 02:58:36;;;;;;;73.65;27.45;;;;;;;2.55;99.69;101513.13;5042566;28;20069;-64
2021/01/03 03:01:03;;;;;;;68.35;24.98;;;;;;;2.58;99.43;101511.16;5040629;28;20171;-65
2021/01/03 03:03:28;;;;;;;75.35;27.08;;;;;;;2.57;99.75;101514.75;5041015;28;20057;-63
2021/01/03 03:05:54;;;;;;;75.30;27.50;;;;;;;2.55;99.45;101515.78;5042164;28;20140;-63
2021/01/03 03:08:20;;;;;;;70.32;27.45;;;;;;;2.54;99.87;101511.38;5041773;28;20056;-63
2021/01/03 03:10:46;;;;;;;85.55;29.08;;;;;;;2.52;99.53;101514.09;5042710;28;20045;-63
2021/01/03 03:13:12;;;;;;;72.35;26.30;;;;;;;2.64;99.33;101515.34;5040558;28;20064;-63
2021/01/03 03:15:39;;;;;;;73.35;26.70;;;;;;;2.55;99.17;101516.63;5041136;28;20084;-62
2021/01/03 03:18:08;;;;;;;82.40;27.75;;;;;;;2.69;99.00;101523.13;5040369;28;20045;-63
2021/01/03 03:20:35;;;;;;;89.03;27.77;;;;;;;2.63;99.16;101516.28;5040953;28;20059;-63
2021/01/03 03:23:01;;;;;;;78.88;28.75;;;;;;;2.65;99.44;101516.19;5040970;28;20045;-63
2021/01/03 03:25:27;;;;;;;83.20;27.60;;;;;;;2.64;99.97;101518.00;5038880;28;20056;-63
2021/01/03 03:27:52;;;;;;;80.03;26.33;;;;;;;2.69;99.83;101517.78;5039920;28;20045;-63
2021/01/03 03:30:21;;;;;;;77.82;27.80;;;;;;;2.67;99.92;101514.34;5040762;28;20100;-63
2021/01/03 03:32:52;;;;;;;81.13;27.50;;;;;;;2.57;99.57;101509.44;5042749;28;20057;-63
2021/01/03 03:35:19;;;;;;;70.47;27.42;;;;;;;2.51;99.62;101508.84;5041295;28;20498;-64
2021/01/03 03:37:44;;;;;;;77.32;27.23;;;;;;;2.65;99.29;101505.56;5041446;28;20056;-63
2021/01/03 03:40:12;;;;;;;74.93;26.92;;;;;;;2.58;99.27;101505.00;5040510;28;20516;-64
2021/01/03 03:42:37;;;;;;;77.28;27.70;;;;;;;2.57;99.88;101503.28;5040813;28;20057;-63
2021/01/03 03:45:05;;;;;;;73.63;27.48;;;;;;;2.64;98.99;101510.03;5039695;28;20500;-63
2021/01/03 03:47:31;;;;;;;81.47;28.13;;;;;;;2.59;99.38;101506.72;5041142;28;20057;-65
2021/01/03 03:49:58;;;;;;;78.30;27.42;;;;;;;2.62;99.43;101517.19;5040958;28;20057;-64
2021/01/03 03:52:24;;;;;;;76.13;27.08;;;;;;;2.66;99.97;101513.47;5038047;28;20060;-64
2021/01/03 03:54:50;;;;;;;77.68;27.52;;;;;;;2.64;99.91;101510.03;5041331;28;20053;-64
2021/01/03 03:57:16;;;;;;;76.00;27.13;;;;;;;2.64;99.33;101510.03;5040934;28;20051;-63
2021/01/03 03:59:42;;;;;;;72.22;27.75;;;;;;;2.63;99.53;101508.31;5040944;28;20490;-63
2021/01/03 04:02:08;;;;;;;72.28;26.15;;;;;;;2.68;99.35;101505.44;5039050;28;20045;-63
2021/01/03 04:04:33;;;;;;;77.60;26.13;;;;;;;2.60;98.79;101503.97;5042148;28;20053;-63
2021/01/03 04:07:00;;;;;;;66.25;25.67;;;;;;;2.65;99.30;101501.13;5041355;28;20049;-63
2021/01/03 04:09:26;;;;;;;67.60;26.23;;;;;;;2.69;99.52;101500.03;5041276;28;20041;-62
2021/01/03 04:11:52;;;;;;;69.20;25.83;;;;;;;2.63;98.98;101497.66;5040591;28;20455;-63
2021/01/03 04:17:10;;;;;;;70.35;26.88;;;;;;;2.61;99.10;101504.84;5051988;23;20052;-62
2021/01/03 04:19:36;;;;;;;79.32;27.48;;;;;;;2.53;98.91;101502.56;5058436;28;20053;-62
2021/01/03 04:22:05;;;;;;;64.13;26.33;;;;;;;2.53;99.35;101507.88;5056588;28;20437;-63
2021/01/03 04:24:32;;;;;;;81.13;28.35;;;;;;;2.52;99.09;101510.56;5059032;28;20485;-63
2021/01/03 04:26:59;;;;;;;72.60;27.95;;;;;;;2.47;98.77;101504.59;5059897;28;20059;-63
2021/01/03 04:29:25;;;;;;;70.05;26.15;;;;;;;2.41;98.96;101516.38;5058469;28;20040;-63
2021/01/03 04:31:56;;;;;;;73.90;25.40;;;;;;;2.44;99.01;101510.91;5058570;28;20049;-63
2021/01/03 04:34:22;;;;;;;70.32;25.42;;;;;;;2.51;99.77;101514.19;5057345;28;20561;-65
2021/01/03 04:36:50;;;;;;;73.38;26.35;;;;;;;2.48;98.85;101519.63;5058303;28;20052;-64
2021/01/03 04:39:17;;;;;;;71.03;27.35;;;;;;;2.42;99.22;101518.94;5057760;28;20110;-63
2021/01/03 04:41:44;;;;;;;71.30;26.45;;;;;;;2.32;99.05;101514.97;5059542;28;20379;-63
2021/01/03 04:44:18;;;;;;;73.53;27.20;;;;;;;2.40;99.80;101526.13;5057665;28;20060;-62
2021/01/03 04:46:44;;;;;;;75.47;25.85;;;;;;;2.42;99.51;101518.09;5058620;28;20059;-63
2021/01/03 04:49:21;;;;;;;73.57;24.80;;;;;;;2.43;99.83;101517.19;5050493;28;20052;-63
2021/01/03 04:54:54;;;;;;;71.90;26.73;;;;;;;2.46;99.20;101522.34;5049856;23;20514;-64
2021/01/03 04:57:31;;;;;;;77.65;26.88;;;;;;;2.43;99.14;101519.84;5020072;28;20461;-65
2021/01/03 04:59:58;;;;;;;78.32;26.42;;;;;;;2.43;99.38;101528.66;5018968;28;20113;-63
2021/01/03 05:02:48;;;;;;;82.90;26.15;;;;;;;2.39;99.12;101531.53;5018124;28;20049;-63
2021/01/03 05:05:27;;;;;;;78.03;27.58;;;;;;;2.46;99.12;101522.34;5016779;28;20049;-63
2021/01/03 05:08:05;;;;;;;78.35;29.45;;;;;;;2.36;99.74;101529.84;5019487;28;20057;-63
2021/01/03 05:10:32;;;;;;;89.28;28.60;;;;;;;2.34;99.11;101523.75;5018188;28;20406;-64
2021/01/03 05:13:05;;;;;;;84.60;30.67;;;;;;;2.32;99.56;101527.41;5019214;28;20132;-64
2021/01/03 05:15:33;;;;;;;72.65;27.38;;;;;;;2.35;99.76;101525.47;5019755;28;20136;-64
2021/01/03 05:18:00;;;;;;;90.25;29.35;;;;;;;2.42;98.99;101521.59;5020635;28;20050;-63
2021/01/03 05:20:26;;;;;;;79.75;28.65;;;;;;;2.39;99.19;101527.06;5020297;28;20054;-63
2021/01/03 05:22:52;;;;;;;85.85;29.80;;;;;;;2.39;98.94;101526.22;5020062;28;20068;-63
2021/01/03 05:25:37;;;;;;;87.82;28.38;;;;;;;2.34;98.98;101529.06;5017170;28;20057;-63
2021/01/03 05:28:08;;;;;;;90.88;30.67;;;;;;;2.34;99.36;101534.38;5009641;28;20409;-64
2021/01/03 05:30:34;;;;;;;84.70;29.55;;;;;;;2.33;99.14;101530.00;5018394;28;20100;-63
2021/01/03 05:33:09;;;;;;;84.60;29.42;;;;;;;2.31;99.38;101529.16;5018609;28;20057;-63
2021/01/03 05:38:04;;;;;;;87.38;30.10;;;;;;;2.35;99.85;101537.88;5067121;23;20079;-63
2021/01/03 05:40:33;;;;;;;87.15;29.23;;;;;;;2.31;100.00;101534.47;5058967;28;20063;-63
2021/01/03 05:43:10;;;;;;;95.22;30.58;;;;;;;2.44;99.68;101543.69;5058094;28;20055;-63
2021/01/03 05:45:42;;;;;;;87.70;28.45;;;;;;;2.47;99.91;101540.00;5058115;28;20099;-63
2021/01/03 05:48:21;;;;;;;83.25;28.63;;;;;;;2.45;99.91;101541.88;5057750;28;20090;-64
2021/01/03 05:50:47;;;;;;;84.65;27.65;;;;;;;2.39;99.08;101547.47;5057227;28;20084;-65
2021/01/03 05:53:20;;;;;;;83.32;28.00;;;;;;;2.37;99.91;101550.19;5056227;28;20065;-63
2021/01/03 05:55:55;;;;;;;94.65;28.58;;;;;;;2.43;99.39;101555.22;5058660;28;20564;-63
2021/01/03 05:58:31;;;;;;;91.70;30.70;;;;;;;2.35;99.72;101552.03;5059459;28;20140;-63
2021/01/03 06:01:17;;;;;;;86.88;28.15;;;;;;;2.35;99.27;101553.81;5056150;28;20051;-63
2021/01/03 06:03:43;;;;;;;91.50;29.23;;;;;;;2.39;99.12;101553.63;5055372;28;20041;-63
2021/01/03 06:06:16;;;;;;;94.15;31.02;;;;;;;2.35;99.96;101552.03;5057618;28;20063;-64
2021/01/03 06:08:43;;;;;;;98.13;30.85;;;;;;;2.32;100.00;101557.47;5058461;28;20056;-64
2021/01/03 06:11:15;;;;;;;94.45;30.85;;;;;;;2.32;99.49;101557.47;5057172;28;20055;-62
2021/01/03 06:13:51;;;;;;;96.47;32.88;;;;;;;2.31;100.00;101554.88;5055577;28;20068;-62
2021/01/03 06:16:21;;;;;;;103.85;34.35;;;;;;;2.30;100.00;101561.13;5059327;28;20048;-64
2021/01/03 06:18:50;;;;;;;98.72;32.17;;;;;;;2.29;100.00;101565.56;5056669;28;20053;-63
2021/01/03 06:21:23;;;;;;;104.75;33.63;;;;;;;2.36;100.00;101556.41;5059196;28;20060;-62
2021/01/03 06:24:01;;;;;;;92.43;30.35;;;;;;;2.34;99.82;101560.06;5056182;28;20513;-63
2021/01/03 06:26:33;;;;;;;110.27;32.90;;;;;;;2.34;100.00;101554.75;5059299;28;20040;-63
2021/01/03 06:29:09;;;;;;;97.97;32.92;;;;;;;2.26;100.00;101563.91;5058430;28;20708;-63
2021/01/03 06:32:11;;;;;;;106.60;33.85;;;;;;;2.25;100.00;101569.28;5056175;28;20059;-63
2021/01/03 06:34:41;;;;;;;109.90;33.60;;;;;;;2.31;99.95;101566.34;5058070;28;20060;-63
2021/01/03 06:37:10;;;;;;;113.68;34.25;;;;;;;2.32;100.00;101568.09;5057995;28;20412;-63
2021/01/03 06:39:42;;;;;;;98.50;33.85;;;;;;;2.31;100.00;101569.03;5056318;28;20052;-63
2021/01/03 06:42:35;;;;;;;108.82;32.70;;;;;;;2.33;100.00;101574.28;5058589;28;20412;-63
2021/01/03 06:45:58;;;;;;;109.85;35.10;;;;;;;2.34;100.00;101592.81;5058683;28;20104;-64
2021/01/03 06:48:57;;;;;;;100.00;33.03;;;;;;;2.44;100.00;101580.00;5034202;28;20044;-63
2021/01/03 06:51:39;;;;;;;106.45;34.50;;;;;;;2.38;99.95;101583.78;5058225;28;20044;-64
2021/01/03 06:54:44;;;;;;;108.78;35.53;;;;;;;2.35;100.00;101583.91;5055214;28;20040;-63
2021/01/03 06:57:43;;;;;;;105.38;35.53;;;;;;;2.41;100.00;101588.94;5036070;28;20525;-63
2021/01/03 07:00:16;;;;;;;106.75;34.45;;;;;;;2.37;100.00;101591.81;5056227;28;20094;-63
2021/01/03 07:02:47;;;;;;;113.10;36.10;;;;;;;2.33;100.00;101585.78;5058045;28;20539;-64
2021/01/03 07:05:14;;;;;;;109.13;34.28;;;;;;;2.38;100.00;101589.09;5056803;28;20497;-63
2021/01/03 07:07:54;;;;;;;103.43;36.13;;;;;;;2.36;100.00;101590.94;5057117;28;20041;-64
2021/01/03 07:10:29;;;;;;;;;;;;;;;2.34;100.00;101590.16;5057350;28;20053;-63
2021/01/03 07:12:55;;;;;;;104.55;34.83;;;;;;;2.39;100.00;101590.81;5054495;28;20248;-64
2021/01/03 07:15:39;;;;;;;111.00;34.83;;;;;;;2.46;100.00;101591.44;5060441;28;20074;-62
2021/01/03 07:18:23;;;;;;;106.00;36.08;;;;;;;2.47;100.00;101594.94;5061889;28;20053;-64
2021/01/03 07:20:55;;;;;;;115.63;35.80;;;;;;;2.40;100.00;101592.56;5062597;28;20452;-63
2021/01/03 07:23:32;;;;;;;109.00;34.47;;;;;;;2.33;100.00;101601.72;5059308;28;20172;-63
2021/01/03 07:26:13;;;;;;;114.15;37.42;;;;;;;2.37;100.00;101607.75;5060785;28;20094;-64
2021/01/03 07:28:39;;;;;;;96.50;34.40;;;;;;;2.35;100.00;101609.63;5061456;28;20094;-63
2021/01/03 07:31:12;;;;;;;98.20;34.83;;;;;;;2.41;99.90;101615.50;5061866;28;20048;-64
2021/01/03 07:34:01;;;;;;;101.95;35.45;;;;;;;2.34;100.00;101603.44;5059194;28;20347;-62
2021/01/03 07:36:40;;;;;;;97.80;34.35;;;;;;;2.31;100.00;101606.22;5061523;28;20131;-63
2021/01/03 07:39:15;;;;;;;114.53;36.22;;;;;;;2.28;100.00;101606.34;5061466;28;20036;-64
2021/01/03 07:41:42;;;;;;;114.82;35.83;;;;;;;2.27;100.00;101612.59;5061995;28;20049;-64
2021/01/03 07:46:57;;;;;;;121.93;37.40;;;;;;;2.21;100.00;101615.50;5061212;22;20054;-63
2021/01/03 07:49:36;;;;;;;124.87;38.20;;;;;;;2.20;100.00;101622.59;5013371;28;20149;-63
2021/01/03 07:52:11;;;;;;;115.40;36.55;;;;;;;2.24;100.00;101623.34;5021725;28;20053;-63
2021/01/03 07:54:37;;;;;;;118.40;40.30;;;;;;;2.24;100.00;101628.66;5032496;28;20045;-63
2021/01/03 07:57:07;;;;;;;124.15;40.13;;;;;;;2.27;100.00;101633.84;5038989;28;20410;-64
2021/01/03 07:59:35;;;;;;;110.53;37.33;;;;;;;2.26;100.00;101632.97;5040533;28;20046;-63
2021/01/03 08:02:01;;;;;;;115.82;39.00;;;;;;;2.27;100.00;101637.34;5040391;28;20406;-63
2021/01/03 08:04:30;;;;;;;107.68;35.40;;;;;;;2.27;100.00;101639.16;5039489;28;20041;-63
2021/01/03 08:07:04;;;;;;;105.05;36.80;;;;;;;2.27;100.00;101644.47;5040453;28;20505;-64
2021/01/03 08:09:30;;;;;;;112.78;38.83;;;;;;;2.27;100.00;101647.13;5037942;28;20057;-63
2021/01/03 08:12:08;;;;;;;108.45;36.35;;;;;;;2.36;100.00;101649.41;5040931;28;20057;-63
2021/01/03 08:14:37;;;;;;;105.35;37.60;;;;;;;2.31;100.00;101654.03;5039873;28;20052;-64
2021/01/03 08:17:03;;;;;;;;;;;;;;;2.29;100.00;101653.22;5041084;28;20065;-63
2021/01/03 08:19:30;;;;;;;109.35;35.55;;;;;;;2.31;100.00;101655.81;5040948;28;20403;-64
2021/01/03 08:21:58;;;;;;;110.05;35.60;;;;;;;2.33;100.00;101664.63;5039591;28;20049;-63
2021/01/03 08:24:27;;;;;;;101.78;35.65;;;;;;;2.31;100.00;101663.78;5034159;28;20064;-64
2021/01/03 08:26:55;;;;;;;;;;;;;;;2.32;100.00;101661.06;5035410;28;20049;-63
2021/01/03 08:29:30;;;;;;;97.63;33.13;;;;;;;2.32;100.00;101666.38;5040411;28;19932;-62
2021/01/03 08:32:00;;;;;;;98.25;34.97;;;;;;;2.32;100.00;101663.72;5040655;28;20061;-64
2021/01/03 08:34:30;;;;;;;99.43;34.55;;;;;;;2.37;100.00;101666.19;5038290;28;20052;-64
2021/01/03 08:36:57;;;;;;;87.30;34.60;;;;;;;2.39;100.00;101674.97;5041344;28;20049;-62
2021/01/03 08:39:27;;;;;;;91.00;35.30;;;;;;;2.37;100.00;101677.72;5039942;28;20049;-63
2021/01/03 08:41:59;;;;;;;92.13;34.88;;;;;;;2.40;99.53;101677.56;5040419;28;20064;-63
2021/01/03 08:44:28;;;;;;;92.90;33.45;;;;;;;2.38;100.00;101682.06;5036867;28;20052;-63
2021/01/03 08:47:02;;;;;;;83.75;32.60;;;;;;;2.40;99.77;101677.56;5044105;28;20045;-63
2021/01/03 08:49:28;;;;;;;80.40;32.58;;;;;;;2.45;99.47;101680.03;5058367;28;20056;-63
2021/01/03 08:52:22;;;;;;;87.60;33.42;;;;;;;2.44;99.72;101684.50;5059138;28;20107;-63
2021/01/03 08:55:03;;;;;;;81.78;30.85;;;;;;;2.44;99.28;101691.59;5057488;28;20037;-64
2021/01/03 08:57:29;;;;;;;78.10;30.90;;;;;;;2.49;99.81;101686.06;5060319;28;20055;-64
2021/01/03 09:03:02;;;;;;;75.70;29.77;;;;;;;2.57;99.11;101691.94;5029564;23;20064;-63
2021/01/03 09:05:32;;;;;;;76.57;29.67;;;;;;;2.56;98.12;101692.88;5019260;28;20037;-63
2021/01/03 09:07:59;;;;;;;69.85;29.20;;;;;;;2.57;97.99;101705.25;5021525;28;20288;-65
2021/01/03 09:10:30;;;;;;;66.20;27.98;;;;;;;2.63;98.00;101694.34;5020095;28;20073;-63
2021/01/03 09:13:14;;;;;;;62.38;26.25;;;;;;;2.56;97.85;101706.16;5018459;28;20057;-63
2021/01/03 09:15:44;;;;;;;58.70;26.90;;;;;;;2.61;97.55;101709.50;5019561;28;20050;-63
2021/01/03 09:18:24;;;;;;;60.28;26.38;;;;;;;2.54;97.55;101714.19;5020121;28;20442;-63
2021/01/03 09:20:55;;;;;;;56.35;24.85;;;;;;;2.59;96.87;101711.34;5019613;28;20100;-65
2021/01/03 09:23:25;;;;;;;52.70;24.88;;;;;;;2.59;96.32;101720.19;5019422;28;20136;-63
2021/01/03 09:25:55;;;;;;;52.67;25.55;;;;;;;2.49;95.85;101731.25;5021697;28;20053;-63
2021/01/03 09:28:26;;;;;;;49.38;23.80;;;;;;;2.48;95.96;101724.22;5018610;28;20049;-63
2021/01/03 09:31:19;;;;;;;53.42;23.88;;;;;;;2.43;95.92;101727.94;5019918;28;20100;-63
2021/01/03 09:33:50;;;;;;;51.35;22.23;;;;;;;2.58;96.08;101721.13;5015935;28;20046;-64
2021/01/03 09:36:27;;;;;;;51.90;22.88;;;;;;;2.48;95.53;101727.75;5020261;28;20050;-65
2021/01/03 09:39:16;;;;;;;49.08;21.85;;;;;;;2.47;94.48;101733.13;5021010;28;20069;-65
2021/01/03 09:42:03;;;;;;;43.35;21.73;;;;;;;2.42;95.16;101726.19;5017400;28;20046;-63
2021/01/03 09:44:36;;;;;;;49.35;22.55;;;;;;;2.36;94.13;101726.44;5017501;28;20042;-63
2021/01/03 09:47:05;;;;;;;42.13;21.48;;;;;;;2.40;94.00;101725.41;5020434;28;20061;-65
2021/01/03 09:49:43;;;;;;;41.58;20.25;;;;;;;2.44;94.40;101727.00;5019169;28;20111;-65
2021/01/03 09:52:17;;;;;;;48.08;21.55;;;;;;;2.49;94.10;101732.13;5019055;28;20411;-65
2021/01/03 09:54:52;;;;;;;41.35;19.63;;;;;;;2.43;94.05;101730.59;5018143;28;20050;-65
2021/01/03 09:57:32;;;;;;;45.65;20.30;;;;;;;2.47;94.28;101730.47;5018453;28;20054;-65
2021/01/03 09:59:58;;;;;;;42.42;18.88;;;;;;;2.56;93.29;101724.75;5019037;28;20151;-63
2021/01/03 10:02:25;;;;;;;50.85;18.88;;;;;;;2.52;93.09;101729.34;5015146;28;20491;-63
2021/01/03 10:04:52;;;;;;;38.72;18.20;;;;;;;2.53;93.32;101735.53;5017441;28;20041;-63
2021/01/03 10:07:21;;;;;;;37.70;17.77;;;;;;;2.62;92.42;101732.47;5019328;28;20057;-62
2021/01/03 10:09:51;;;;;;;;;;;;;;;2.69;91.67;101733.94;5015147;28;21382;-64
2021/01/03 10:12:18;;;;;;;;;;;;;;;2.61;92.25;101736.09;5019740;28;19925;-63
2021/01/03 10:14:45;;;;;;;35.13;17.67;;;;;;;2.64;91.93;101730.63;5017563;28;20397;-63
2021/01/03 10:17:16;;;;;;;37.72;18.90;;;;;;;2.61;91.83;101725.44;5018167;28;20045;-63
2021/01/03 10:22:35;;;;;;;43.00;21.08;;;;;;;2.71;93.01;101726.78;5052010;22;20413;-63
2021/01/03 10:25:06;;;;;;;45.50;21.70;;;;;;;2.63;92.71;101732.44;5061089;28;20068;-63
2021/01/03 10:27:32;;;;;;;44.88;22.75;;;;;;;2.59;93.28;101722.84;5060761;28;20072;-65
2021/01/03 10:29:59;;;;;;;46.75;22.58;;;;;;;2.69;93.89;101720.66;5060569;28;20489;-63
2021/01/03 10:32:25;;;;;;;49.40;23.98;;;;;;;2.68;93.78;101723.38;5057969;28;20389;-63
2021/01/03 10:34:51;;;;;;;48.05;24.02;;;;;;;2.68;93.78;101715.41;5058964;28;20056;-64
2021/01/03 10:37:17;;;;;;;47.63;23.95;;;;;;;2.65;93.64;101720.84;5059799;28;20045;-64
2021/01/03 10:39:44;;;;;;;49.63;23.38;;;;;;;2.69;93.43;101714.50;5057497;28;20068;-64
2021/01/03 10:42:11;;;;;;;51.00;24.00;;;;;;;2.68;93.09;101718.94;5059526;28;20060;-65
2021/01/03 10:44:37;;;;;;;50.10;23.85;;;;;;;2.61;93.75;101723.66;5057013;28;20486;-64
2021/01/03 10:47:04;;;;;;;52.70;23.67;;;;;;;2.61;93.64;101710.34;5048588;28;20060;-64
2021/01/03 10:49:30;;;;;;;48.22;22.65;;;;;;;2.63;93.70;101716.50;5061185;28;20049;-65
2021/01/03 10:51:56;;;;;;;45.88;22.80;;;;;;;2.65;94.09;101703.13;5063034;28;20992;-65
2021/01/03 10:54:24;;;;;;;49.17;22.95;;;;;;;2.68;93.42;101712.75;5058865;28;20080;-65
2021/01/03 11:00:00;;;;;;;55.38;24.13;;;;;;;2.62;93.98;101705.91;5067791;22;20049;-64
2021/01/03 11:02:27;;;;;;;48.10;22.35;;;;;;;2.69;93.69;101704.72;5061938;28;20041;-64
2021/01/03 11:04:53;;;;;;;46.33;21.85;;;;;;;2.70;94.01;101711.78;5061795;28;20497;-63
2021/01/03 11:07:20;;;;;;;47.58;23.80;;;;;;;2.70;93.30;101711.78;5061805;28;20053;-66
2021/01/03 11:09:47;;;;;;;44.95;21.08;;;;;;;2.67;93.87;101711.91;5062361;28;20064;-65
2021/01/03 11:12:16;;;;;;;45.67;21.95;;;;;;;2.69;93.55;101704.72;5061670;28;20550;-64
2021/01/03 11:14:42;;;;;;;41.53;20.50;;;;;;;2.69;93.39;101704.72;5060884;28;20056;-64
2021/01/03 11:17:09;;;;;;;43.40;20.58;;;;;;;2.65;93.65;101699.59;5062760;28;20071;-65
2021/01/03 11:19:37;;;;;;;41.33;19.40;;;;;;;2.62;93.02;101697.91;5063367;28;20516;-64
2021/01/03 11:22:06;;;;;;;38.55;19.23;;;;;;;2.68;92.93;101703.00;5062993;28;20045;-64
2021/01/03 11:24:32;;;;;;;45.05;20.10;;;;;;;2.71;92.75;101696.66;5062686;28;20049;-64
2021/01/03 11:27:00;;;;;;;38.83;19.95;;;;;;;2.65;92.34;101697.81;5061704;28;20053;-64
2021/01/03 11:29:28;;;;;;;39.95;18.38;;;;;;;2.68;92.61;101699.47;5062297;28;20045;-65
2021/01/03 11:31:55;;;;;;;35.05;17.65;;;;;;;2.66;92.17;101693.34;5062392;28;20048;-63
2021/01/03 11:34:24;;;;;;;36.42;18.45;;;;;;;2.68;91.88;101697.69;5061275;28;20106;-64
2021/01/03 11:36:53;;;;;;;36.50;17.05;;;;;;;2.70;91.73;101695.81;5061889;28;20485;-64
2021/01/03 11:39:20;;;;;;;33.83;17.58;;;;;;;2.74;91.08;101692.09;5060784;28;20071;-64
2021/01/03 11:41:49;;;;;;;30.58;16.95;;;;;;;2.75;91.64;101688.53;5061363;28;20378;-64
2021/01/03 11:44:15;;;;;;;35.42;16.52;;;;;;;2.78;91.53;101688.41;5060844;28;20497;-64
2021/01/03 11:46:42;;;;;;;36.28;18.65;;;;;;;2.75;90.48;101677.00;5062073;28;20067;-64
2021/01/03 11:49:08;;;;;;;33.28;17.23;;;;;;;2.75;91.49;101675.25;5060954;28;20106;-64
2021/01/03 11:51:34;;;;;;;36.67;17.67;;;;;;;2.80;91.61;101675.88;5062698;28;20410;-64